Time;durP1;ratioP1;P1;durP2;ratioP2;P2;SDS_P1;SDS_P2;PMS_P1;PMS_P2;Temp;Humidity;BMP_temperature;BMP_pressure;BME280_temperature;BME280_humidity;BME280_pressure;Samples;Min_cycle;Max_cycle;Signal;HPM_P1;HPM_P2
2023/06/10 00:00:00;;;;;;;15.13;10.90;;;18.10;99.90;;;;;;5042208;28;20104;-58
2023/06/10 00:02:27;;;;;;;16.33;11.82;;;18.10;99.90;;;;;;5038945;28;20124;-57
2023/06/10 00:04:52;;;;;;;14.75;10.73;;;18.00;99.90;;;;;;5043875;28;20065;-55
2023/06/10 00:07:18;;;;;;;17.58;11.93;;;18.00;99.90;;;;;;5040220;28;20491;-57
2023/06/10 00:09:44;;;;;;;15.63;10.65;;;17.90;99.90;;;;;;5044968;28;20519;-54
2023/06/10 00:12:09;;;;;;;18.27;12.80;;;17.90;99.90;;;;;;5037958;28;20030;-58
2023/06/10 00:14:39;;;;;;;16.20;10.98;;;17.80;99.90;;;;;;5039201;28;20040;-57
2023/06/10 00:17:09;;;;;;;18.90;12.10;;;17.80;99.90;;;;;;5040147;28;20021;-57
2023/06/10 00:19:36;;;;;;;17.13;11.13;;;17.80;99.90;;;;;;5047658;28;20486;-58
2023/06/10 00:22:02;;;;;;;14.88;11.52;;;17.70;99.90;;;;;;5039713;28;20025;-59
2023/06/10 00:24:28;;;;;;;19.63;12.23;;;17.60;99.90;;;;;;5039322;28;20409;-58
2023/06/10 00:26:54;;;;;;;18.98;11.70;;;17.60;99.90;;;;;;5046159;28;20021;-59
2023/06/10 00:29:19;;;;;;;16.77;11.80;;;17.50;99.90;;;;;;5045729;28;20549;-59
2023/06/10 00:31:45;;;;;;;16.05;11.63;;;17.50;99.90;;;;;;5040920;28;20056;-58
2023/06/10 00:34:11;;;;;;;15.60;11.75;;;17.40;99.90;;;;;;5039627;28;20526;-59
2023/06/10 00:36:37;;;;;;;20.02;11.82;;;17.40;99.90;;;;;;5044428;28;20033;-59
2023/06/10 00:39:04;;;;;;;16.17;12.05;;;17.30;99.90;;;;;;5041336;28;20033;-59
2023/06/10 00:41:30;;;;;;;17.45;11.65;;;17.30;99.90;;;;;;5048778;28;20028;-59
2023/06/10 00:43:56;;;;;;;17.05;12.35;;;17.20;99.90;;;;;;5041369;28;20041;-60
2023/06/10 00:46:23;;;;;;;16.63;11.65;;;17.20;99.90;;;;;;5043813;28;20041;-59
2023/06/10 00:48:49;;;;;;;16.20;12.38;;;17.20;99.90;;;;;;5047623;28;20032;-58
2023/06/10 00:51:19;;;;;;;16.98;11.40;;;17.10;99.90;;;;;;5048308;28;20071;-58
2023/06/10 00:53:45;;;;;;;16.05;12.40;;;17.10;99.90;;;;;;5039295;28;20087;-57
2023/06/10 00:56:11;;;;;;;14.05;11.60;;;17.00;99.90;;;;;;5043604;28;20075;-57
2023/06/10 00:58:37;;;;;;;23.15;12.55;;;17.00;99.90;;;;;;5045870;28;20443;-59
2023/06/10 01:01:03;;;;;;;22.50;12.27;;;17.00;99.90;;;;;;5047065;28;20049;-59
2023/06/10 01:03:29;;;;;;;16.65;12.00;;;17.00;99.90;;;;;;5047018;28;20083;-57
2023/06/10 01:06:19;;;;;;;15.93;12.38;;;16.90;99.90;;;;;;5039468;28;20037;-57
2023/06/10 01:09:21;;;;;;;19.08;13.25;;;16.80;99.90;;;;;;5046621;28;20025;-59
2023/06/10 01:12:01;;;;;;;21.63;12.45;;;16.80;99.90;;;;;;5045780;28;20029;-56
2023/06/10 01:14:28;;;;;;;19.42;12.60;;;16.80;99.90;;;;;;5042794;28;20612;-56
2023/06/10 01:16:55;;;;;;;19.23;11.80;;;16.70;99.90;;;;;;5042765;28;20032;-59
2023/06/10 01:19:24;;;;;;;16.05;12.05;;;16.70;99.90;;;;;;5044961;28;20029;-58
2023/06/10 01:21:51;;;;;;;21.20;11.95;;;16.70;99.90;;;;;;5041157;28;20025;-60
2023/06/10 01:24:18;;;;;;;17.77;12.38;;;16.70;99.90;;;;;;5041309;28;20059;-59
2023/06/10 01:26:45;;;;;;;20.30;11.95;;;16.70;99.90;;;;;;5044635;28;20030;-59
2023/06/10 01:29:45;;;;;;;19.15;13.73;;;16.70;99.90;;;;;;5042969;28;20030;-59
2023/06/10 01:32:18;;;;;;;18.55;13.65;;;16.60;99.90;;;;;;5042172;28;20040;-59
2023/06/10 01:34:44;;;;;;;17.52;12.80;;;16.60;99.90;;;;;;5042388;28;20119;-59
2023/06/10 01:37:15;;;;;;;19.02;12.48;;;16.60;99.90;;;;;;5042921;28;20029;-59
2023/06/10 01:39:42;;;;;;;20.67;12.32;;;16.60;99.90;;;;;;5037297;28;20040;-59
2023/06/10 01:42:09;;;;;;;17.23;13.15;;;16.60;99.90;;;;;;5046286;28;20035;-59
2023/06/10 01:44:35;;;;;;;17.05;12.30;;;16.60;99.90;;;;;;5044050;28;20018;-59
2023/06/10 01:47:01;;;;;;;20.13;12.95;;;16.60;99.90;;;;;;5044073;28;20505;-59
2023/06/10 01:49:28;;;;;;;19.42;13.32;;;16.50;99.90;;;;;;5041493;28;20046;-59
2023/06/10 01:51:54;;;;;;;23.27;13.00;;;16.50;99.90;;;;;;5040876;28;20057;-60
2023/06/10 01:54:19;;;;;;;20.08;13.85;;;16.40;99.90;;;;;;5043619;28;20067;-59
2023/06/10 01:56:45;;;;;;;18.75;12.57;;;16.40;99.90;;;;;;5042619;28;20025;-60
2023/06/10 01:59:10;;;;;;;20.02;14.20;;;16.30;99.90;;;;;;5040611;28;20395;-58
2023/06/10 02:01:36;;;;;;;15.82;12.50;;;16.30;99.90;;;;;;5041861;28;20488;-59
2023/06/10 02:04:01;;;;;;;22.63;13.07;;;16.20;99.90;;;;;;5042187;28;20543;-59
2023/06/10 02:06:27;;;;;;;21.33;13.32;;;16.20;99.90;;;;;;5044122;28;20032;-60
2023/06/10 02:08:52;;;;;;;22.35;14.07;;;16.20;99.90;;;;;;5043544;28;20032;-60
2023/06/10 02:11:18;;;;;;;18.45;13.23;;;16.10;99.90;;;;;;5043800;28;20035;-59
2023/06/10 02:13:43;;;;;;;17.33;12.75;;;16.10;99.90;;;;;;5040976;28;20029;-55
2023/06/10 02:16:12;;;;;;;23.00;14.02;;;16.10;99.90;;;;;;5039199;28;20045;-59
2023/06/10 02:18:40;;;;;;;19.13;13.05;;;16.10;99.90;;;;;;5039185;28;20055;-58
2023/06/10 02:21:06;;;;;;;15.93;12.77;;;16.10;99.90;;;;;;5042654;28;20033;-59
2023/06/10 02:23:32;;;;;;;17.88;13.23;;;16.00;99.90;;;;;;5043202;28;20562;-58
2023/06/10 02:25:57;;;;;;;18.75;12.98;;;16.00;99.90;;;;;;5038122;28;20037;-58
2023/06/10 02:28:23;;;;;;;25.55;13.48;;;16.00;99.90;;;;;;5040163;28;20132;-59
2023/06/10 02:30:49;;;;;;;23.38;12.90;;;15.90;99.90;;;;;;5035612;28;20039;-60
2023/06/10 02:33:14;;;;;;;18.17;13.30;;;15.90;99.90;;;;;;5045743;28;20031;-59
2023/06/10 02:35:40;;;;;;;19.38;13.57;;;15.90;99.90;;;;;;5042289;28;20036;-59
2023/06/10 02:38:06;;;;;;;23.95;14.52;;;15.80;99.90;;;;;;5041005;28;20052;-59
2023/06/10 02:40:32;;;;;;;20.30;13.00;;;15.80;99.90;;;;;;5040793;28;20546;-59
2023/06/10 02:42:58;;;;;;;20.45;13.45;;;15.80;99.90;;;;;;5043596;28;20123;-58
2023/06/10 02:45:24;;;;;;;18.52;13.43;;;15.80;99.90;;;;;;5042690;28;20024;-58
2023/06/10 02:47:50;;;;;;;20.40;13.93;;;15.70;99.90;;;;;;5045937;28;20104;-58
2023/06/10 02:50:15;;;;;;;20.38;14.40;;;15.70;99.90;;;;;;5045425;28;20168;-59
2023/06/10 02:52:41;;;;;;;24.02;13.85;;;15.70;99.90;;;;;;5043906;28;20347;-58
2023/06/10 02:55:07;;;;;;;21.48;13.07;;;15.70;99.90;;;;;;5041112;28;20073;-59
2023/06/10 02:57:32;;;;;;;16.48;13.02;;;15.60;99.90;;;;;;5043704;28;20025;-58
2023/06/10 02:59:58;;;;;;;22.98;14.48;;;15.60;99.90;;;;;;5047077;28;20561;-58
2023/06/10 03:02:28;;;;;;;17.88;13.35;;;15.60;99.90;;;;;;5035539;28;20611;-58
2023/06/10 03:04:57;;;;;;;18.63;12.70;;;15.50;99.90;;;;;;5042619;28;20560;-55
2023/06/10 03:07:23;;;;;;;18.60;13.85;;;15.50;99.90;;;;;;5041292;28;20056;-56
2023/06/10 03:09:49;;;;;;;21.40;14.82;;;15.50;99.90;;;;;;5045696;28;20661;-58
2023/06/10 03:12:15;;;;;;;17.85;14.30;;;15.50;99.90;;;;;;5042090;28;20033;-58
2023/06/10 03:14:41;;;;;;;21.23;13.80;;;15.50;99.90;;;;;;5041211;28;20452;-57
2023/06/10 03:17:08;;;;;;;23.73;14.15;;;15.50;99.90;;;;;;5043688;28;20479;-56
2023/06/10 03:19:34;;;;;;;18.95;13.45;;;15.50;99.90;;;;;;5039380;28;20048;-54
2023/06/10 03:22:14;;;;;;;19.15;14.05;;;15.50;99.90;;;;;;5042069;28;20065;-56
2023/06/10 03:24:40;;;;;;;23.70;14.52;;;15.50;99.90;;;;;;5038855;28;20136;-57
2023/06/10 03:27:07;;;;;;;20.30;14.73;;;15.50;99.90;;;;;;5046809;28;20499;-57
2023/06/10 03:29:33;;;;;;;20.50;13.55;;;15.50;99.90;;;;;;5041596;28;20036;-56
2023/06/10 03:31:58;;;;;;;23.83;12.98;;;15.50;99.90;;;;;;5043009;28;20033;-59
2023/06/10 03:34:24;;;;;;;22.65;15.18;;;15.50;99.90;;;;;;5041144;28;20078;-59
2023/06/10 03:36:50;;;;;;;21.67;13.88;;;15.50;99.90;;;;;;5039834;28;20108;-60
2023/06/10 03:39:15;;;;;;;22.08;14.40;;;15.50;99.90;;;;;;5039844;28;20103;-58
2023/06/10 03:41:41;;;;;;;19.42;13.43;;;15.50;99.90;;;;;;5044215;28;20459;-59
2023/06/10 03:44:06;;;;;;;17.77;13.52;;;15.50;99.90;;;;;;5045017;28;20021;-58
2023/06/10 03:46:32;;;;;;;21.75;14.32;;;15.50;99.90;;;;;;5040042;28;20586;-59
2023/06/10 03:49:00;;;;;;;28.27;15.38;;;15.50;99.90;;;;;;5041143;28;20029;-59
2023/06/10 03:51:26;;;;;;;18.77;14.00;;;15.40;99.90;;;;;;5045773;28;20031;-59
2023/06/10 03:53:52;;;;;;;21.00;14.32;;;15.40;99.90;;;;;;5040414;28;20041;-58
2023/06/10 03:56:17;;;;;;;20.83;14.82;;;15.40;99.90;;;;;;5041557;28;20052;-59
2023/06/10 03:58:43;;;;;;;20.35;14.30;;;15.30;99.90;;;;;;5038121;28;20151;-60
2023/06/10 04:01:10;;;;;;;20.35;14.93;;;15.40;99.90;;;;;;5043090;28;20075;-59
2023/06/10 04:03:36;;;;;;;23.85;14.95;;;15.40;99.90;;;;;;5045553;28;20037;-58
2023/06/10 04:06:02;;;;;;;22.08;14.63;;;15.40;99.90;;;;;;5043142;28;20056;-58
2023/06/10 04:08:28;;;;;;;25.85;15.40;;;15.40;99.90;;;;;;5042585;28;20017;-58
2023/06/10 04:10:53;;;;;;;22.25;15.20;;;15.40;99.90;;;;;;5039743;28;20028;-59
2023/06/10 04:13:19;;;;;;;21.85;14.27;;;15.40;99.90;;;;;;5036743;28;20057;-58
2023/06/10 04:15:45;;;;;;;22.73;14.20;;;15.50;99.90;;;;;;5044256;28;20032;-59
2023/06/10 04:18:10;;;;;;;22.17;14.70;;;15.50;99.90;;;;;;5043238;28;20113;-55
2023/06/10 04:20:36;;;;;;;23.35;14.25;;;15.50;99.90;;;;;;5048667;28;20033;-55
2023/06/10 04:23:01;;;;;;;26.60;14.90;;;15.60;99.90;;;;;;5049214;28;20064;-57
2023/06/10 04:25:28;;;;;;;23.83;14.77;;;15.60;99.90;;;;;;5044669;28;20021;-58
2023/06/10 04:27:54;;;;;;;27.10;15.18;;;15.60;99.90;;;;;;5043647;28;20110;-59
2023/06/10 04:30:20;;;;;;;22.05;14.82;;;15.70;99.90;;;;;;5043527;28;20115;-58
2023/06/10 04:32:46;;;;;;;20.92;14.63;;;15.70;99.90;;;;;;5050282;28;20085;-58
2023/06/10 04:35:13;;;;;;;21.20;14.35;;;15.70;99.90;;;;;;5052120;28;20501;-57
2023/06/10 04:37:39;;;;;;;18.50;13.57;;;15.70;99.90;;;;;;5045377;28;20098;-57
2023/06/10 04:40:06;;;;;;;20.65;14.73;;;15.80;99.90;;;;;;5047096;28;20495;-58
2023/06/10 04:42:31;;;;;;;18.40;14.43;;;15.80;99.90;;;;;;5044417;28;20022;-57
2023/06/10 04:44:57;;;;;;;27.05;14.32;;;15.80;99.90;;;;;;5042999;28;20086;-57
2023/06/10 04:47:23;;;;;;;20.77;14.50;;;15.90;99.90;;;;;;5043204;28;20427;-58
2023/06/10 04:49:48;;;;;;;20.70;15.00;;;15.90;99.90;;;;;;5046760;28;20024;-57
2023/06/10 04:52:14;;;;;;;19.17;14.35;;;16.00;99.90;;;;;;5050533;28;20136;-57
2023/06/10 04:54:39;;;;;;;19.15;13.75;;;16.00;99.90;;;;;;5048473;28;20060;-56
2023/06/10 04:57:07;;;;;;;20.63;15.75;;;16.10;99.90;;;;;;5042765;28;20111;-58
2023/06/10 04:59:33;;;;;;;24.88;15.10;;;16.10;99.90;;;;;;5042020;28;20082;-57
2023/06/10 05:01:58;;;;;;;22.88;13.45;;;16.20;99.90;;;;;;5045749;28;20029;-57
2023/06/10 05:04:24;;;;;;;22.60;15.25;;;16.30;99.90;;;;;;5045478;28;20063;-54
2023/06/10 05:06:50;;;;;;;24.60;14.52;;;16.30;99.90;;;;;;5048593;28;20021;-58
2023/06/10 05:09:15;;;;;;;25.23;15.07;;;16.40;99.90;;;;;;5044400;28;20866;-59
2023/06/10 05:11:41;;;;;;;23.02;14.43;;;16.40;99.90;;;;;;5044179;28;20029;-53
2023/06/10 05:14:06;;;;;;;21.45;14.43;;;16.50;99.90;;;;;;5043185;28;20086;-57
2023/06/10 05:16:32;;;;;;;20.83;14.75;;;16.50;99.90;;;;;;5046173;28;20451;-56
2023/06/10 05:18:57;;;;;;;20.98;13.80;;;16.60;99.90;;;;;;5049204;28;20111;-56
2023/06/10 05:21:23;;;;;;;19.95;14.35;;;16.60;99.90;;;;;;5047139;28;20546;-60
2023/06/10 05:23:49;;;;;;;19.00;13.95;;;16.70;99.90;;;;;;5046064;28;20101;-59
2023/06/10 05:26:15;;;;;;;19.73;14.00;;;16.80;99.90;;;;;;5042478;28;20498;-58
2023/06/10 05:28:41;;;;;;;19.15;13.25;;;16.90;99.90;;;;;;5045528;28;20562;-58
2023/06/10 05:31:06;;;;;;;22.63;12.48;;;17.00;99.90;;;;;;5046842;28;20025;-56
2023/06/10 05:33:32;;;;;;;18.30;12.48;;;17.10;99.90;;;;;;5051701;28;20028;-56
2023/06/10 05:35:58;;;;;;;18.92;12.25;;;17.20;99.90;;;;;;5046190;28;20029;-58
2023/06/10 05:38:23;;;;;;;14.98;9.90;;;17.30;99.90;;;;;;5044642;28;20025;-60
2023/06/10 05:40:49;;;;;;;13.55;9.80;;;17.40;99.90;;;;;;5049008;28;20033;-59
2023/06/10 05:43:16;;;;;;;16.60;10.02;;;17.50;99.90;;;;;;5046317;28;20025;-60
2023/06/10 05:45:42;;;;;;;13.52;9.18;;;17.70;99.90;;;;;;5045309;28;20028;-58
2023/06/10 05:48:07;;;;;;;14.93;9.55;;;17.80;99.90;;;;;;5049078;28;20033;-57
2023/06/10 05:50:38;;;;;;;15.70;10.18;;;18.00;99.90;;;;;;5047265;28;20521;-58
2023/06/10 05:53:04;;;;;;;12.10;8.90;;;18.10;99.90;;;;;;5048260;28;20120;-57
2023/06/10 05:55:29;;;;;;;12.15;8.52;;;18.20;99.90;;;;;;5042605;28;20522;-57
2023/06/10 05:58:00;;;;;;;14.80;8.43;;;18.30;99.90;;;;;;5048691;28;20025;-60
2023/06/10 06:00:26;;;;;;;11.10;8.27;;;18.40;99.90;;;;;;5041459;28;20115;-60
2023/06/10 06:02:52;;;;;;;17.83;8.48;;;18.50;99.90;;;;;;5041500;28;20021;-57
2023/06/10 06:05:18;;;;;;;13.90;8.63;;;18.60;99.90;;;;;;5040181;28;20483;-57
2023/06/10 06:07:43;;;;;;;10.40;7.70;;;18.70;99.90;;;;;;5048584;28;20035;-59
2023/06/10 06:10:09;;;;;;;15.30;8.50;;;18.70;99.90;;;;;;5038261;28;20109;-60
2023/06/10 06:12:34;;;;;;;9.95;7.97;;;18.80;99.90;;;;;;5045937;28;20426;-59
2023/06/10 06:15:00;;;;;;;13.32;8.20;;;18.90;99.90;;;;;;5044904;28;20036;-60
2023/06/10 06:17:25;;;;;;;16.40;7.85;;;19.00;99.90;;;;;;5045477;28;20052;-59
2023/06/10 06:19:51;;;;;;;11.52;8.18;;;19.10;99.90;;;;;;5046904;28;20029;-60
2023/06/10 06:22:21;;;;;;;12.35;7.80;;;19.20;99.90;;;;;;5041818;28;20505;-60
2023/06/10 06:24:46;;;;;;;12.13;8.40;;;19.30;99.90;;;;;;5039120;28;20040;-56
2023/06/10 06:27:12;;;;;;;11.30;7.13;;;19.30;99.90;;;;;;5044196;28;20502;-60
2023/06/10 06:29:38;;;;;;;10.00;7.32;;;19.40;99.90;;;;;;5042394;28;20112;-60
2023/06/10 06:32:03;;;;;;;12.88;8.45;;;19.50;99.90;;;;;;5042006;28;20093;-60
2023/06/10 06:34:29;;;;;;;11.63;7.68;;;19.50;99.90;;;;;;5041450;28;20021;-60
2023/06/10 06:36:54;;;;;;;10.40;7.13;;;19.60;99.90;;;;;;5049283;28;20036;-60
2023/06/10 06:39:20;;;;;;;9.65;7.05;;;19.70;99.90;;;;;;5041589;28;20032;-60
2023/06/10 06:41:45;;;;;;;9.00;6.63;;;19.80;99.90;;;;;;5045254;28;20033;-61
2023/06/10 06:44:11;;;;;;;12.63;7.28;;;19.80;99.90;;;;;;5041150;28;20091;-60
2023/06/10 06:46:36;;;;;;;9.25;6.82;;;20.00;99.90;;;;;;5042892;28;20100;-60
2023/06/10 06:49:02;;;;;;;9.43;7.07;;;20.10;99.90;;;;;;5046905;28;20069;-61
2023/06/10 06:51:28;;;;;;;12.75;6.82;;;20.30;99.90;;;;;;5048093;28;20025;-60
2023/06/10 06:53:56;;;;;;;11.63;6.43;;;20.40;99.90;;;;;;5044249;28;20025;-60
2023/06/10 06:56:22;;;;;;;10.90;6.90;;;20.50;99.90;;;;;;5044064;28;20048;-60
2023/06/10 06:58:47;;;;;;;16.33;6.40;;;20.60;99.90;;;;;;5042615;28;20063;-61
2023/06/10 07:01:13;;;;;;;11.38;6.03;;;20.60;99.90;;;;;;5041304;28;20025;-60
2023/06/10 07:03:38;;;;;;;8.27;6.32;;;20.70;99.90;;;;;;5048623;28;20491;-61
2023/06/10 07:06:04;;;;;;;11.38;7.13;;;20.80;99.90;;;;;;5044434;28;20035;-61
2023/06/10 07:08:30;;;;;;;8.70;6.53;;;20.90;99.90;;;;;;5038165;28;20029;-61
2023/06/10 07:10:55;;;;;;;10.48;6.85;;;21.00;99.90;;;;;;5042906;28;20057;-60
2023/06/10 07:13:21;;;;;;;13.45;7.32;;;21.10;99.90;;;;;;5048974;28;20487;-61
2023/06/10 07:15:46;;;;;;;13.05;7.38;;;21.20;99.90;;;;;;5045943;28;20064;-60
2023/06/10 07:18:12;;;;;;;11.80;7.18;;;21.30;99.90;;;;;;5036553;28;20148;-60
2023/06/10 07:20:37;;;;;;;9.48;6.80;;;21.40;99.90;;;;;;5032829;28;21810;-60
2023/06/10 07:23:03;;;;;;;12.15;7.43;;;21.40;99.90;;;;;;5035018;28;20083;-58
2023/06/10 07:25:28;;;;;;;14.50;6.82;;;21.60;99.90;;;;;;5038391;28;20033;-59
2023/06/10 07:27:54;;;;;;;17.63;7.30;;;21.60;99.90;;;;;;5041890;28;20041;-59
2023/06/10 07:30:20;;;;;;;8.35;6.78;;;21.60;99.90;;;;;;5043204;28;20057;-61
2023/06/10 07:32:45;;;;;;;8.93;6.30;;;21.70;99.90;;;;;;5041628;28;20044;-61
2023/06/10 07:35:11;;;;;;;9.82;6.57;;;21.70;99.90;;;;;;5038882;28;20017;-60
2023/06/10 07:37:37;;;;;;;9.93;7.07;;;21.80;99.90;;;;;;5041154;28;20551;-61
2023/06/10 07:40:03;;;;;;;9.30;6.70;;;21.90;99.90;;;;;;5039692;28;20044;-61
2023/06/10 07:42:28;;;;;;;8.95;6.40;;;22.00;99.90;;;;;;5043059;28;20029;-58
2023/06/10 07:44:54;;;;;;;11.98;6.63;;;22.00;99.90;;;;;;5044414;28;20048;-61
2023/06/10 07:47:20;;;;;;;8.18;6.25;;;22.10;99.90;;;;;;5041604;28;20021;-60
2023/06/10 07:49:45;;;;;;;9.48;7.30;;;22.10;99.90;;;;;;5040448;28;21765;-60
2023/06/10 07:52:11;;;;;;;13.70;7.22;;;22.20;99.90;;;;;;5040197;28;20493;-59
2023/06/10 07:54:36;;;;;;;11.43;6.90;;;22.30;99.90;;;;;;5041645;28;20033;-60
2023/06/10 07:57:02;;;;;;;15.80;7.60;;;22.30;99.90;;;;;;5047279;28;20033;-60
2023/06/10 07:59:28;;;;;;;14.23;6.50;;;22.40;99.90;;;;;;5037402;28;20061;-60
2023/06/10 08:01:53;;;;;;;12.68;7.70;;;22.50;99.90;;;;;;5040497;28;20081;-60
2023/06/10 08:04:19;;;;;;;13.00;6.45;;;22.50;99.90;;;;;;5041501;28;20499;-59
2023/06/10 08:06:44;;;;;;;9.20;6.72;;;22.60;99.90;;;;;;5040171;28;20411;-60
2023/06/10 08:09:10;;;;;;;9.27;6.88;;;22.70;99.90;;;;;;5042998;28;20033;-59
2023/06/10 08:11:36;;;;;;;9.10;6.75;;;22.70;99.90;;;;;;5042724;28;20025;-59
2023/06/10 08:14:02;;;;;;;11.13;6.88;;;22.90;99.90;;;;;;5038098;28;20025;-60
2023/06/10 08:16:27;;;;;;;11.57;6.82;;;22.90;99.90;;;;;;5037270;28;20074;-60
2023/06/10 08:18:53;;;;;;;10.73;6.82;;;23.10;99.90;;;;;;5039008;28;20404;-60
2023/06/10 08:21:19;;;;;;;10.65;7.38;;;23.10;99.90;;;;;;5041825;28;20033;-59
2023/06/10 08:23:44;;;;;;;12.27;7.07;;;23.20;99.90;;;;;;5045330;28;20021;-58
2023/06/10 08:26:10;;;;;;;11.60;7.60;;;23.30;99.90;;;;;;5043145;28;20029;-60
2023/06/10 08:28:36;;;;;;;9.75;7.32;;;23.40;99.90;;;;;;5038691;28;20878;-59
2023/06/10 08:31:01;;;;;;;8.57;6.53;;;23.50;99.90;;;;;;5042535;28;20056;-58
2023/06/10 08:33:27;;;;;;;21.10;8.88;;;23.50;99.90;;;;;;5048890;28;20029;-60
2023/06/10 08:35:52;;;;;;;22.25;8.70;;;23.60;99.90;;;;;;5041336;28;20047;-59
2023/06/10 08:38:18;;;;;;;18.13;8.38;;;23.60;99.90;;;;;;5044353;28;20037;-58
2023/06/10 08:40:44;;;;;;;12.43;7.18;;;23.70;99.90;;;;;;5036359;28;20461;-59
2023/06/10 08:43:30;;;;;;;15.82;7.93;;;23.70;99.90;;;;;;5034900;28;20112;-59
2023/06/10 08:46:00;;;;;;;19.10;8.30;;;23.80;99.90;;;;;;5043472;28;20017;-58
2023/06/10 08:48:29;;;;;;;13.52;8.77;;;23.90;99.90;;;;;;5039207;28;20426;-60
2023/06/10 08:50:57;;;;;;;19.13;8.63;;;23.90;99.90;;;;;;5040397;28;20091;-60
2023/06/10 08:53:25;;;;;;;12.50;7.65;;;24.00;99.90;;;;;;5035985;28;20040;-59
2023/06/10 08:55:51;;;;;;;15.10;8.20;;;24.10;99.90;;;;;;5042004;28;20117;-58
2023/06/10 08:58:18;;;;;;;13.57;6.60;;;24.30;99.90;;;;;;5043922;28;20033;-60
2023/06/10 09:00:44;;;;;;;9.93;6.80;;;24.30;99.90;;;;;;5043470;28;20029;-60
2023/06/10 09:03:11;;;;;;;13.32;7.05;;;24.50;99.90;;;;;;5048854;28;20028;-60
2023/06/10 09:05:37;;;;;;;15.40;7.07;;;24.60;99.90;;;;;;5051553;28;20656;-60
2023/06/10 09:08:05;;;;;;;9.85;7.78;;;24.70;99.90;;;;;;5045058;28;20073;-58
2023/06/10 09:10:32;;;;;;;13.52;7.10;;;24.80;99.90;;;;;;5044359;28;20036;-55
2023/06/10 09:12:57;;;;;;;13.02;7.25;;;24.80;99.90;;;;;;5039025;28;20060;-60
2023/06/10 09:15:23;;;;;;;11.20;6.80;;;24.90;99.90;;;;;;5043810;28;20057;-59
2023/06/10 09:17:48;;;;;;;8.73;6.95;;;25.10;99.90;;;;;;5046430;28;20446;-59
2023/06/10 09:20:14;;;;;;;9.40;6.35;;;25.20;99.90;;;;;;5041738;28;20029;-60
2023/06/10 09:22:42;;;;;;;12.00;6.93;;;25.30;99.90;;;;;;5046517;28;20037;-59
2023/06/10 09:25:11;;;;;;;16.83;7.22;;;25.50;99.90;;;;;;5054714;28;20029;-54
2023/06/10 09:27:50;;;;;;;11.70;7.35;;;25.60;99.90;;;;;;5045298;28;20098;-59
2023/06/10 09:30:32;;;;;;;9.55;7.40;;;25.70;99.90;;;;;;5051045;28;20025;-59
2023/06/10 09:33:03;;;;;;;8.25;6.57;;;25.90;99.90;;;;;;5045865;28;20471;-59
2023/06/10 09:35:30;;;;;;;8.85;7.05;;;25.90;99.90;;;;;;5045247;28;20537;-59
2023/06/10 09:38:00;;;;;;;9.57;6.95;;;26.10;99.90;;;;;;5045479;28;20028;-56
2023/06/10 09:40:27;;;;;;;11.70;6.65;;;26.20;99.90;;;;;;5045915;28;20028;-58
2023/06/10 09:42:55;;;;;;;8.25;6.40;;;26.30;99.90;;;;;;5041340;28;20507;-59
2023/06/10 09:45:21;;;;;;;10.52;6.45;;;26.50;99.90;;;;;;5041732;28;20032;-59
2023/06/10 09:47:47;;;;;;;10.88;7.03;;;26.60;99.90;;;;;;5041413;28;20033;-60
2023/06/10 09:50:13;;;;;;;9.55;7.38;;;26.70;99.70;;;;;;5041523;28;20022;-60
2023/06/10 09:52:39;;;;;;;9.95;7.20;;;26.70;99.40;;;;;;5043592;28;20104;-59
2023/06/10 09:55:08;;;;;;;10.38;7.45;;;26.90;99.90;;;;;;5046280;28;20100;-60
2023/06/10 09:57:35;;;;;;;9.30;6.78;;;27.10;99.90;;;;;;5033787;28;20024;-60
2023/06/10 10:00:05;;;;;;;10.32;6.60;;;27.30;99.70;;;;;;5038676;28;20110;-60
2023/06/10 10:02:31;;;;;;;9.52;6.93;;;27.50;99.90;;;;;;5051177;28;20025;-58
2023/06/10 10:05:04;;;;;;;24.40;9.43;;;27.60;96.90;;;;;;5044502;28;20032;-60
2023/06/10 10:07:30;;;;;;;10.57;6.88;;;27.70;99.90;;;;;;5040977;28;20021;-60
2023/06/10 10:09:55;;;;;;;9.45;6.90;;;27.80;99.50;;;;;;5045528;28;20029;-60
2023/06/10 10:12:22;;;;;;;10.70;6.50;;;28.00;99.30;;;;;;5040966;28;20021;-60
2023/06/10 10:14:48;;;;;;;9.43;6.65;;;28.20;99.90;;;;;;5043631;28;20052;-60
2023/06/10 10:17:15;;;;;;;13.98;6.63;;;28.20;98.50;;;;;;5045992;28;20029;-58
2023/06/10 10:19:48;;;;;;;14.18;7.20;;;28.40;97.70;;;;;;5042776;28;20036;-59
2023/06/10 10:22:29;;;;;;;7.57;5.90;;;28.60;94.80;;;;;;5039868;28;20032;-58
2023/06/10 10:25:02;;;;;;;12.02;6.88;;;28.70;95.10;;;;;;5041912;28;20021;-58
2023/06/10 10:27:33;;;;;;;9.88;6.50;;;28.90;94.20;;;;;;5046223;28;20017;-59
2023/06/10 10:29:59;;;;;;;12.55;6.55;;;28.80;96.80;;;;;;5044367;28;20036;-59
2023/06/10 10:32:38;;;;;;;8.82;6.35;;;29.20;93.80;;;;;;5043115;28;20041;-60
2023/06/10 10:35:17;;;;;;;13.55;7.45;;;29.40;93.60;;;;;;5042547;28;20376;-57
2023/06/10 10:37:43;;;;;;;9.50;6.65;;;29.60;92.10;;;;;;5038080;28;20029;-58
2023/06/10 10:40:10;;;;;;;11.25;7.07;;;29.90;91.30;;;;;;5041554;28;20033;-58
2023/06/10 10:42:36;;;;;;;12.18;7.13;;;30.00;91.90;;;;;;5039395;28;20048;-55
2023/06/10 10:45:02;;;;;;;15.25;7.20;;;30.00;90.60;;;;;;5044067;28;20017;-57
2023/06/10 10:47:30;;;;;;;10.43;6.47;;;30.10;92.90;;;;;;5037029;28;20507;-58
2023/06/10 10:49:59;;;;;;;9.05;6.95;;;30.30;90.20;;;;;;5036511;28;20527;-58
2023/06/10 10:52:25;;;;;;;9.35;6.55;;;30.40;89.50;;;;;;5038572;28;20124;-58
2023/06/10 10:54:53;;;;;;;11.93;7.20;;;30.40;87.40;;;;;;5037280;28;20025;-59
2023/06/10 10:57:23;;;;;;;8.77;6.40;;;30.60;89.40;;;;;;5041721;28;20062;-59
2023/06/10 10:59:49;;;;;;;9.13;6.80;;;30.50;90.50;;;;;;5039479;28;20462;-59
2023/06/10 11:02:19;;;;;;;9.65;6.43;;;30.60;85.90;;;;;;5038944;28;20112;-58
2023/06/10 11:04:47;;;;;;;10.68;6.18;;;30.90;82.70;;;;;;5044313;28;20036;-60
2023/06/10 11:07:15;;;;;;;10.20;6.80;;;30.80;85.50;;;;;;5045129;28;20025;-59
2023/06/10 11:10:03;;;;;;;12.45;6.43;;;30.90;83.20;;;;;;5044040;28;20024;-59
2023/06/10 11:12:51;;;;;;;6.35;5.75;;;30.90;85.80;;;;;;5041788;28;20093;-59
2023/06/10 11:15:23;;;;;;;12.13;6.38;;;31.20;85.10;;;;;;5041103;28;20025;-59
2023/06/10 11:18:10;;;;;;;10.63;6.00;;;31.40;83.50;;;;;;5043249;28;20120;-59
2023/06/10 11:20:45;;;;;;;13.60;7.10;;;31.50;83.10;;;;;;5042151;28;20549;-58
2023/06/10 11:23:24;;;;;;;7.85;6.13;;;31.30;80.00;;;;;;5042190;28;20113;-60
2023/06/10 11:25:49;;;;;;;7.07;6.00;;;31.60;76.20;;;;;;5038761;28;20021;-60
2023/06/10 11:28:19;;;;;;;10.32;6.45;;;31.30;78.40;;;;;;5045341;28;20017;-58
2023/06/10 11:30:45;;;;;;;9.38;6.22;;;31.30;75.90;;;;;;5040745;28;20337;-60
2023/06/10 11:33:16;;;;;;;11.77;6.20;;;31.00;74.00;;;;;;5042345;28;20584;-60
2023/06/10 11:35:43;;;;;;;7.10;5.82;;;31.10;73.90;;;;;;5043437;28;20068;-59
2023/06/10 11:38:08;;;;;;;7.38;5.45;;;31.00;76.60;;;;;;5040549;28;20029;-60
2023/06/10 11:40:34;;;;;;;7.88;5.68;;;31.30;68.10;;;;;;5040759;28;20033;-59
2023/06/10 11:43:01;;;;;;;12.48;5.93;;;31.50;72.90;;;;;;5042045;28;20025;-58
2023/06/10 11:45:27;;;;;;;9.07;5.97;;;31.60;71.70;;;;;;5042058;28;20701;-60
2023/06/10 11:47:58;;;;;;;6.95;5.93;;;32.00;66.60;;;;;;5039651;28;20036;-60
2023/06/10 11:50:33;;;;;;;7.95;6.45;;;31.70;72.30;;;;;;5042938;28;20037;-60
2023/06/10 11:52:59;;;;;;;6.57;5.90;;;31.30;72.40;;;;;;5043195;28;20033;-58
2023/06/10 11:55:46;;;;;;;8.68;6.15;;;30.80;72.50;;;;;;5033264;28;20028;-59
2023/06/10 11:58:19;;;;;;;8.77;6.68;;;30.40;73.10;;;;;;5048435;28;20037;-56
2023/06/10 12:00:48;;;;;;;7.22;5.70;;;30.30;80.70;;;;;;5046273;28;20033;-59
2023/06/10 12:03:14;;;;;;;13.88;6.10;;;30.80;73.40;;;;;;5038997;28;20506;-59
2023/06/10 12:05:40;;;;;;;6.55;5.00;;;31.40;68.20;;;;;;5040127;28;20514;-59
2023/06/10 12:08:12;;;;;;;8.13;5.75;;;31.70;60.70;;;;;;5043371;28;20107;-57
2023/06/10 12:10:43;;;;;;;8.32;5.55;;;32.00;65.80;;;;;;5037674;28;20083;-60
2023/06/10 12:13:09;;;;;;;5.90;5.30;;;31.90;65.80;;;;;;5035068;28;20025;-58
2023/06/10 12:15:35;;;;;;;6.63;5.32;;;32.40;62.80;;;;;;5033755;28;20024;-59
2023/06/10 12:18:02;;;;;;;8.27;5.43;;;32.20;61.10;;;;;;5041444;28;20521;-60
2023/06/10 12:20:29;;;;;;;12.38;6.05;;;31.80;67.60;;;;;;5043232;28;20036;-59
2023/06/10 12:22:55;;;;;;;6.45;5.40;;;31.50;62.40;;;;;;5044127;28;20022;-59
2023/06/10 12:25:30;;;;;;;7.70;5.45;;;31.50;60.70;;;;;;5045223;28;20018;-59
2023/06/10 12:27:57;;;;;;;9.05;5.97;;;31.60;60.30;;;;;;5051562;28;20863;-60
2023/06/10 12:30:26;;;;;;;9.23;5.75;;;32.00;67.90;;;;;;5032990;28;20127;-59
2023/06/10 12:32:58;;;;;;;8.88;6.43;;;32.00;67.20;;;;;;5037580;28;20565;-58
2023/06/10 12:35:26;;;;;;;8.60;6.18;;;31.40;66.00;;;;;;5036209;28;20512;-59